createdAt,value
2023-02-27T00:01:45.668Z,3.17
2023-02-27T00:04:14.042Z,2.87
2023-02-27T00:06:41.849Z,2.17
2023-02-27T00:09:11.005Z,3.10
2023-02-27T00:11:38.916Z,2.77
2023-02-27T00:14:06.791Z,3.10
2023-02-27T00:16:34.758Z,2.73
2023-02-27T00:19:04.734Z,2.63
2023-02-27T00:21:33.874Z,2.57
2023-02-27T00:24:03.898Z,3.20
2023-02-27T00:26:33.044Z,3.00
2023-02-27T00:29:00.859Z,2.73
2023-02-27T00:31:29.077Z,2.80
2023-02-27T00:33:57.294Z,2.67
2023-02-27T00:36:25.727Z,3.20
2023-02-27T00:38:53.674Z,3.17
2023-02-27T00:41:21.817Z,2.53
2023-02-27T00:43:51.119Z,3.57
2023-02-27T00:46:19.726Z,2.80
2023-02-27T00:48:47.660Z,2.57
2023-02-27T00:51:15.532Z,2.83
2023-02-27T00:53:43.368Z,2.90
2023-02-27T00:56:13.253Z,3.20
2023-02-27T00:58:41.096Z,3.10
2023-02-27T01:01:11.534Z,3.30
2023-02-27T01:03:39.393Z,3.07
2023-02-27T01:06:08.183Z,3.53
2023-02-27T01:08:36.016Z,3.33
2023-02-27T01:11:06.246Z,3.50
2023-02-27T01:13:34.112Z,3.57
2023-02-27T01:16:02.000Z,3.60
2023-02-27T01:18:31.611Z,4.10
2023-02-27T01:20:59.447Z,4.20
2023-02-27T01:23:27.433Z,4.80
2023-02-27T01:25:55.351Z,4.13
2023-02-27T01:28:23.223Z,4.17
2023-02-27T01:30:51.286Z,4.50
2023-02-27T01:33:19.232Z,4.43
2023-02-27T01:35:48.706Z,4.80
2023-02-27T01:38:16.675Z,4.50
2023-02-27T01:40:44.970Z,3.97
2023-02-27T01:43:19.647Z,3.80
2023-02-27T01:45:49.123Z,3.50
2023-02-27T01:48:21.708Z,3.30
2023-02-27T01:50:58.372Z,3.37
2023-02-27T01:53:30.519Z,3.57
2023-02-27T01:56:05.228Z,3.43
2023-02-27T01:58:33.998Z,3.73
2023-02-27T02:01:03.157Z,3.40
2023-02-27T02:03:40.997Z,3.17
2023-02-27T02:06:12.282Z,2.70
2023-02-27T02:08:45.562Z,2.07
2023-02-27T02:11:16.572Z,3.60
2023-02-27T02:13:49.966Z,3.43
2023-02-27T02:16:46.461Z,3.47
2023-02-27T02:19:59.419Z,3.50
2023-02-27T02:23:31.075Z,3.20
2023-02-27T02:26:33.241Z,3.33
2023-02-27T02:29:55.840Z,3.43
2023-02-27T02:33:35.834Z,3.13
2023-02-27T02:36:55.347Z,3.87
2023-02-27T02:39:56.993Z,3.33
2023-02-27T02:42:36.480Z,3.53
2023-02-27T02:45:21.477Z,3.87
2023-02-27T02:48:04.713Z,3.40
2023-02-27T02:50:41.606Z,3.43
2023-02-27T02:53:18.156Z,3.70
2023-02-27T02:55:57.285Z,3.50
2023-02-27T02:58:32.343Z,3.73
2023-02-27T03:01:10.651Z,3.67
2023-02-27T03:03:46.804Z,3.93
2023-02-27T03:06:22.200Z,4.00
2023-02-27T03:08:56.357Z,3.45
2023-02-27T03:11:33.080Z,3.60
2023-02-27T03:14:11.431Z,3.30
2023-02-27T03:16:45.400Z,4.17
2023-02-27T03:19:21.155Z,3.77
2023-02-27T03:21:55.336Z,3.60
2023-02-27T03:24:30.192Z,3.97
2023-02-27T03:27:05.398Z,3.72
2023-02-27T03:29:44.721Z,3.73
2023-02-27T03:32:21.763Z,3.83
2023-02-27T03:34:50.419Z,3.60
2023-02-27T03:37:30.798Z,4.77
2023-02-27T03:40:10.823Z,3.67
2023-02-27T03:42:49.220Z,3.97
2023-02-27T03:45:40.597Z,4.10
2023-02-27T03:48:09.292Z,4.77
2023-02-27T03:50:38.427Z,4.40
2023-02-27T03:53:21.366Z,3.97
2023-02-27T03:55:53.526Z,4.33
2023-02-27T03:58:23.316Z,4.43
2023-02-27T04:00:51.680Z,4.63
2023-02-27T04:03:20.988Z,4.50
2023-02-27T04:05:50.741Z,4.43
2023-02-27T04:08:42.336Z,4.93
2023-02-27T04:11:34.085Z,4.37
2023-02-27T04:14:30.655Z,4.27
2023-02-27T04:17:21.550Z,5.63
2023-02-27T04:20:27.960Z,4.50
2023-02-27T04:23:03.966Z,4.45
2023-02-27T04:25:59.787Z,4.43
2023-02-27T04:28:43.229Z,4.30
2023-02-27T04:31:20.493Z,4.10
2023-02-27T04:33:57.260Z,4.00
2023-02-27T04:36:32.724Z,4.50
2023-02-27T04:39:08.284Z,3.90
2023-02-27T04:41:46.727Z,4.50
2023-02-27T04:44:18.487Z,4.90
2023-02-27T04:46:50.420Z,4.57
2023-02-27T04:49:25.095Z,5.07
2023-02-27T04:52:00.232Z,4.73
2023-02-27T04:54:36.125Z,4.80
2023-02-27T04:59:45.235Z,4.73
2023-02-27T05:02:24.656Z,5.30
2023-02-27T05:05:00.399Z,5.20
2023-02-27T05:07:36.166Z,5.30
2023-02-27T05:12:45.294Z,4.63
2023-02-27T05:15:20.653Z,5.30
2023-02-27T05:18:00.663Z,4.90
2023-02-27T05:20:40.666Z,4.77
2023-02-27T05:23:16.908Z,5.00
2023-02-27T05:25:54.693Z,5.00
2023-02-27T05:31:25.799Z,4.10
2023-02-27T05:34:08.295Z,4.93
2023-02-27T05:36:43.623Z,5.13
2023-02-27T05:39:14.699Z,5.68
2023-02-27T05:41:50.711Z,4.80
2023-02-27T05:46:58.681Z,4.50
2023-02-27T05:49:34.374Z,5.57
2023-02-27T05:52:07.754Z,4.85
2023-02-27T05:54:44.901Z,5.37
2023-02-27T05:57:20.122Z,4.90
2023-02-27T05:59:56.383Z,5.75
2023-02-27T06:02:24.751Z,5.17
2023-02-27T06:04:55.329Z,4.80
2023-02-27T06:07:23.495Z,5.10
2023-02-27T06:09:51.909Z,5.17
2023-02-27T06:12:19.666Z,5.63
2023-02-27T06:14:47.520Z,5.10
2023-02-27T06:17:15.382Z,5.27
2023-02-27T06:19:43.166Z,5.00
2023-02-27T06:22:12.409Z,5.20
2023-02-27T06:24:40.228Z,4.97
2023-02-27T06:27:08.062Z,5.30
2023-02-27T06:29:35.988Z,5.53
2023-02-27T06:32:03.884Z,4.93
2023-02-27T06:34:31.758Z,5.40
2023-02-27T06:36:59.617Z,5.07
2023-02-27T06:39:28.789Z,5.13
2023-02-27T06:41:56.953Z,5.00
2023-02-27T06:44:24.813Z,5.80
2023-02-27T06:46:52.616Z,6.50
2023-02-27T06:49:20.818Z,6.53
2023-02-27T06:51:48.743Z,5.47
2023-02-27T06:54:16.588Z,5.37
2023-02-27T06:56:46.113Z,5.00
2023-02-27T06:59:14.339Z,5.10
2023-02-27T07:01:42.115Z,4.50
2023-02-27T07:04:14.595Z,4.60
2023-02-27T07:07:35.793Z,4.87
2023-02-27T07:09:31.306Z,5.43
2023-02-27T07:12:01.644Z,4.97
2023-02-27T07:14:29.739Z,5.57
2023-02-27T07:16:57.531Z,5.13
2023-02-27T07:19:25.860Z,5.40
2023-02-27T07:21:53.691Z,5.13
2023-02-27T07:24:21.445Z,5.67
2023-02-27T07:26:49.320Z,5.10
2023-02-27T07:29:18.740Z,5.30
2023-02-27T07:31:46.613Z,4.83
2023-02-27T07:34:15.693Z,4.03
2023-02-27T07:36:44.228Z,5.53
2023-02-27T07:39:13.374Z,5.03
2023-02-27T07:41:41.237Z,4.50
2023-02-27T07:44:11.952Z,4.97
2023-02-27T07:46:41.191Z,8.43
2023-02-27T07:49:10.436Z,5.87
2023-02-27T07:51:38.453Z,8.63
2023-02-27T07:54:06.230Z,5.80
2023-02-27T07:56:34.330Z,5.30
2023-02-27T07:59:02.328Z,5.03
2023-02-27T08:01:30.395Z,4.97
2023-02-27T08:03:59.593Z,4.90
2023-02-27T08:06:27.711Z,4.70
2023-02-27T08:08:55.910Z,4.27
2023-02-27T08:11:23.869Z,4.33
2023-02-27T08:14:00.989Z,4.17
2023-02-27T08:16:31.725Z,4.50
2023-02-27T08:19:01.745Z,4.33
2023-02-27T08:21:30.361Z,4.70
2023-02-27T08:23:58.729Z,4.20
2023-02-27T08:26:26.890Z,3.33
2023-02-27T08:28:54.934Z,3.43
2023-02-27T08:31:23.486Z,3.57
2023-02-27T08:34:04.277Z,3.60
2023-02-27T08:36:38.861Z,3.75
2023-02-27T08:39:07.729Z,3.70
2023-02-27T08:41:36.521Z,3.70
2023-02-27T08:44:05.226Z,3.77
2023-02-27T08:46:33.090Z,4.17
2023-02-27T08:49:00.896Z,4.30
2023-02-27T08:51:29.243Z,4.20
2023-02-27T08:54:01.751Z,3.63
2023-02-27T08:56:30.088Z,3.90
2023-02-27T08:58:57.956Z,4.17
2023-02-27T09:01:28.587Z,3.90
2023-02-27T09:03:56.767Z,3.60
2023-02-27T09:06:26.380Z,4.00
2023-02-27T09:08:54.753Z,3.77
2023-02-27T09:11:25.679Z,3.60
2023-02-27T09:13:55.136Z,3.30
2023-02-27T09:16:23.767Z,3.60
2023-02-27T09:18:51.684Z,3.53
2023-02-27T09:21:20.529Z,3.10
2023-02-27T09:23:48.350Z,2.73
2023-02-27T09:26:17.149Z,3.40
2023-02-27T09:28:46.320Z,3.40
2023-02-27T09:31:14.257Z,2.87
2023-02-27T09:33:42.056Z,3.37
2023-02-27T09:36:10.758Z,3.57
2023-02-27T09:38:41.203Z,3.80
2023-02-27T09:41:39.305Z,3.40
2023-02-27T09:44:36.367Z,3.17
2023-02-27T09:47:17.599Z,3.30
2023-02-27T09:49:59.181Z,3.80
2023-02-27T09:52:29.851Z,2.50
2023-02-27T09:54:57.956Z,3.33
2023-02-27T09:57:43.815Z,2.77
2023-02-27T10:00:35.041Z,2.75
2023-02-27T10:03:24.519Z,2.73
2023-02-27T10:06:15.332Z,2.40
2023-02-27T10:08:55.662Z,2.83
2023-02-27T10:11:43.467Z,2.73
2023-02-27T10:14:38.790Z,2.50
2023-02-27T10:17:20.670Z,2.80
2023-02-27T10:19:51.355Z,2.20
2023-02-27T10:22:26.388Z,2.57
2023-02-27T10:25:02.708Z,2.20
2023-02-27T10:27:32.385Z,2.00
2023-02-27T10:30:29.220Z,1.73
2023-02-27T10:33:09.849Z,2.10
2023-02-27T10:35:42.324Z,2.10
2023-02-27T10:38:16.654Z,2.30
2023-02-27T10:40:47.671Z,2.15
2023-02-27T10:43:19.250Z,2.40
2023-02-27T10:45:47.309Z,2.93
2023-02-27T10:48:18.312Z,2.30
2023-02-27T10:50:52.013Z,2.63
2023-02-27T10:53:23.174Z,2.13
2023-02-27T10:56:02.041Z,1.97
2023-02-27T10:58:34.672Z,2.17
2023-02-27T11:01:06.529Z,2.33
2023-02-27T11:03:41.346Z,2.17
2023-02-27T11:06:20.794Z,1.98
2023-02-27T11:09:12.769Z,2.17
2023-02-27T11:11:40.646Z,3.10
2023-02-27T11:14:27.898Z,1.77
2023-02-27T11:16:58.396Z,2.50
2023-02-27T11:19:33.859Z,2.00
2023-02-27T11:22:05.920Z,2.72
2023-02-27T11:24:34.566Z,2.20
2023-02-27T11:27:17.760Z,2.23
2023-02-27T11:29:58.234Z,1.80
2023-02-27T11:32:35.701Z,1.70
2023-02-27T11:35:19.377Z,2.00
2023-02-27T11:37:50.957Z,1.90
2023-02-27T11:40:23.113Z,2.00
2023-02-27T11:42:55.371Z,2.53
2023-02-27T11:46:05.177Z,2.10
2023-02-27T11:48:25.508Z,2.47
2023-02-27T11:51:28.689Z,1.90
2023-02-27T11:54:13.384Z,2.10
2023-02-27T11:56:47.151Z,2.00
2023-02-27T11:59:32.192Z,2.23
2023-02-27T12:02:11.583Z,2.13
2023-02-27T12:04:50.105Z,2.60
2023-02-27T12:07:26.282Z,2.37
2023-02-27T12:10:04.690Z,1.90
2023-02-27T12:12:45.581Z,1.80
2023-02-27T12:15:25.837Z,2.20
2023-02-27T12:18:05.290Z,2.13
2023-02-27T12:20:41.520Z,2.30
2023-02-27T12:23:21.097Z,3.47
2023-02-27T12:25:53.915Z,3.93
2023-02-27T12:28:35.254Z,2.30
2023-02-27T12:31:28.172Z,2.00
2023-02-27T12:34:07.050Z,1.90
2023-02-27T12:36:35.086Z,2.10
2023-02-27T12:39:04.880Z,2.87
2023-02-27T12:41:44.901Z,2.20
2023-02-27T12:44:37.208Z,2.73
2023-02-27T12:47:25.624Z,1.40
2023-02-27T12:50:03.905Z,1.60
2023-02-27T12:52:57.248Z,1.60
2023-02-27T12:55:30.934Z,1.30
2023-02-27T12:58:20.913Z,1.40
2023-02-27T13:00:59.713Z,1.27
2023-02-27T13:03:37.479Z,1.63
2023-02-27T13:06:20.018Z,1.60
2023-02-27T13:09:11.699Z,1.70
2023-02-27T13:11:56.273Z,1.70
2023-02-27T13:14:43.477Z,1.50
2023-02-27T13:17:22.473Z,1.67
2023-02-27T13:19:55.442Z,1.67
2023-02-27T13:22:38.056Z,1.43
2023-02-27T13:25:14.325Z,1.80
2023-02-27T13:27:48.735Z,1.77
2023-02-27T13:30:26.367Z,1.93
2023-02-27T13:33:07.370Z,1.47
2023-02-27T13:35:53.247Z,2.90
2023-02-27T13:38:45.119Z,1.40
2023-02-27T13:41:38.483Z,1.30
2023-02-27T13:44:43.604Z,1.60
2023-02-27T13:47:41.735Z,1.73
2023-02-27T13:50:50.360Z,1.47
2023-02-27T13:53:21.529Z,2.00
2023-02-27T13:55:53.591Z,1.83
2023-02-27T13:58:24.795Z,1.70
2023-02-27T14:01:01.469Z,1.60
2023-02-27T14:03:32.104Z,1.60
2023-02-27T14:06:06.221Z,2.00
2023-02-27T14:08:48.558Z,1.67
2023-02-27T14:11:23.495Z,1.73
2023-02-27T14:14:06.432Z,1.90
2023-02-27T14:16:56.865Z,2.00
2023-02-27T14:19:56.636Z,1.80
2023-02-27T14:22:40.918Z,1.77
2023-02-27T14:25:22.008Z,1.83
2023-02-27T14:27:57.067Z,2.07
2023-02-27T14:30:41.975Z,1.95
2023-02-27T14:33:37.684Z,1.80
2023-02-27T14:36:14.913Z,1.90
2023-02-27T14:38:43.218Z,1.80
2023-02-27T14:41:29.067Z,2.00
2023-02-27T14:46:32.151Z,2.10
2023-02-27T14:49:05.106Z,2.20
2023-02-27T14:51:37.296Z,2.07
2023-02-27T14:54:13.051Z,2.27
2023-02-27T14:56:52.687Z,1.80
2023-02-27T14:59:26.653Z,2.00
2023-02-27T15:01:58.340Z,1.83
2023-02-27T15:04:30.975Z,1.77
2023-02-27T15:07:01.287Z,1.90
2023-02-27T15:09:38.359Z,2.10
2023-02-27T15:12:07.056Z,1.87
2023-02-27T15:14:39.018Z,2.60
2023-02-27T15:17:17.854Z,2.13
2023-02-27T15:19:51.268Z,1.60
2023-02-27T15:22:37.645Z,1.50
2023-02-27T15:25:07.898Z,1.50
2023-02-27T15:27:39.651Z,1.70
2023-02-27T15:30:21.468Z,1.77
2023-02-27T15:32:50.100Z,1.73
2023-02-27T15:35:24.233Z,1.43
2023-02-27T15:37:56.763Z,1.53
2023-02-27T15:40:28.850Z,1.80
2023-02-27T15:42:59.282Z,1.77
2023-02-27T15:45:32.882Z,1.90
2023-02-27T15:48:01.210Z,2.67
2023-02-27T15:50:36.758Z,1.90
2023-02-27T15:53:12.654Z,1.80
2023-02-27T15:55:44.756Z,1.60
2023-02-27T15:58:24.517Z,2.50
2023-02-27T16:01:01.005Z,2.10
2023-02-27T16:03:37.009Z,1.60
2023-02-27T16:06:12.702Z,1.50
2023-02-27T16:11:19.263Z,1.50
2023-02-27T16:13:48.042Z,1.70
2023-02-27T16:16:28.408Z,1.57
2023-02-27T16:18:59.738Z,1.80
2023-02-27T16:21:33.750Z,1.57
2023-02-27T16:24:20.493Z,2.05
2023-02-27T16:26:53.108Z,1.90
2023-02-27T16:29:25.260Z,1.93
2023-02-27T16:31:56.581Z,1.90
2023-02-27T16:34:44.546Z,1.80
2023-02-27T16:37:21.838Z,2.23
2023-02-27T16:39:51.975Z,2.10
2023-02-27T16:42:21.352Z,2.40
2023-02-27T16:44:49.074Z,1.87
2023-02-27T16:47:16.839Z,2.40
2023-02-27T16:49:46.360Z,2.57
2023-02-27T16:52:14.408Z,2.30
2023-02-27T16:54:43.730Z,2.20
2023-02-27T16:57:11.804Z,1.80
2023-02-27T16:59:41.133Z,1.60
2023-02-27T17:02:13.467Z,1.80
2023-02-27T17:04:44.293Z,2.20
2023-02-27T17:07:18.215Z,2.00
2023-02-27T17:09:48.404Z,2.13
2023-02-27T17:12:16.334Z,2.63
2023-02-27T17:14:44.068Z,3.17
2023-02-27T17:17:11.879Z,2.20
2023-02-27T17:19:39.669Z,1.90
2023-02-27T17:22:07.531Z,1.80
2023-02-27T17:24:36.354Z,2.00
2023-02-27T17:27:05.756Z,1.87
2023-02-27T17:29:33.630Z,2.00
2023-02-27T17:32:01.780Z,2.27
2023-02-27T17:34:29.698Z,2.30
2023-02-27T17:36:57.651Z,2.43
2023-02-27T17:39:25.650Z,3.97
2023-02-27T17:41:54.401Z,3.47
2023-02-27T17:44:23.905Z,3.87
2023-02-27T17:46:52.059Z,2.87
2023-02-27T17:49:19.952Z,2.70
2023-02-27T17:51:47.669Z,2.57
2023-02-27T17:54:15.745Z,2.60
2023-02-27T17:56:43.832Z,2.90
2023-02-27T17:59:11.733Z,2.93
2023-02-27T18:01:40.949Z,4.10
2023-02-27T18:04:11.317Z,5.10
2023-02-27T18:06:39.348Z,6.47
2023-02-27T18:09:07.213Z,7.20
2023-02-27T18:11:36.339Z,7.77
2023-02-27T18:14:04.329Z,7.30
2023-02-27T18:16:32.743Z,11.20
2023-02-27T18:19:04.548Z,13.97
2023-02-27T18:21:33.924Z,10.60
2023-02-27T18:24:02.413Z,7.57
2023-02-27T18:26:33.060Z,6.50
2023-02-27T18:29:04.759Z,9.23
2023-02-27T18:31:39.251Z,7.00
2023-02-27T18:34:09.487Z,8.73
2023-02-27T18:36:38.947Z,7.67
2023-02-27T18:39:06.948Z,8.13
2023-02-27T18:41:35.291Z,8.23
2023-02-27T18:44:03.653Z,6.63
2023-02-27T18:46:32.916Z,6.00
2023-02-27T18:49:01.421Z,5.57
2023-02-27T18:51:30.619Z,6.30
2023-02-27T18:54:00.709Z,7.33
2023-02-27T18:56:30.902Z,8.00
2023-02-27T18:59:05.057Z,8.40
2023-02-27T19:01:37.148Z,8.73
2023-02-27T19:04:07.723Z,9.07
2023-02-27T19:06:40.834Z,8.67
2023-02-27T19:09:17.918Z,10.20
2023-02-27T19:11:48.157Z,9.50
2023-02-27T19:14:16.552Z,8.37
2023-02-27T19:16:46.040Z,8.77
2023-02-27T19:19:13.872Z,9.30
2023-02-27T19:21:43.569Z,7.97
2023-02-27T19:24:13.219Z,7.87
2023-02-27T19:26:41.244Z,7.83
2023-02-27T19:29:09.271Z,8.80
2023-02-27T19:31:37.171Z,7.47
2023-02-27T19:34:05.333Z,7.20
2023-02-27T19:36:34.697Z,6.63
2023-02-27T19:39:04.416Z,6.13
2023-02-27T19:41:33.611Z,5.93
2023-02-27T19:44:01.772Z,6.53
2023-02-27T19:46:35.995Z,5.93
2023-02-27T19:49:05.893Z,7.00
2023-02-27T19:51:34.457Z,6.47
2023-02-27T19:54:03.853Z,5.33
2023-02-27T19:56:32.271Z,5.70
2023-02-27T19:59:01.215Z,6.47
2023-02-27T20:01:31.559Z,5.37
2023-02-27T20:04:01.173Z,5.77
2023-02-27T20:06:32.156Z,7.23
2023-02-27T20:09:00.645Z,7.23
2023-02-27T20:11:31.752Z,7.20
2023-02-27T20:14:00.051Z,8.23
2023-02-27T20:16:30.659Z,8.93
2023-02-27T20:18:58.786Z,20.90
2023-02-27T20:21:28.355Z,12.23
2023-02-27T20:23:58.302Z,9.20
2023-02-27T20:26:31.894Z,10.23
2023-02-27T20:29:02.986Z,9.03
2023-02-27T20:31:34.395Z,9.40
2023-02-27T20:34:06.039Z,10.60
2023-02-27T20:36:35.537Z,10.10
2023-02-27T20:39:05.831Z,9.90
2023-02-27T20:41:36.664Z,9.67
2023-02-27T20:44:05.732Z,9.30
2023-02-27T20:46:35.740Z,9.40
2023-02-27T20:49:06.150Z,8.97
2023-02-27T20:51:38.045Z,9.63
2023-02-27T20:54:09.563Z,8.90
2023-02-27T20:56:41.278Z,8.20
2023-02-27T20:59:13.256Z,7.97
2023-02-27T21:01:43.139Z,7.30
2023-02-27T21:04:11.007Z,6.60
2023-02-27T21:06:38.847Z,7.53
2023-02-27T21:09:06.868Z,7.47
2023-02-27T21:11:34.622Z,7.37
2023-02-27T21:14:09.087Z,8.17
2023-02-27T21:16:38.477Z,8.87
2023-02-27T21:19:07.351Z,9.10
2023-02-27T21:21:37.994Z,8.17
2023-02-27T21:24:06.796Z,7.47
2023-02-27T21:26:38.641Z,7.50
2023-02-27T21:29:10.620Z,7.20
2023-02-27T21:31:41.330Z,6.63
2023-02-27T21:34:14.344Z,6.73
2023-02-27T21:36:44.250Z,6.30
2023-02-27T21:39:15.346Z,6.73
2023-02-27T21:41:44.534Z,6.80
2023-02-27T21:44:16.789Z,6.20
2023-02-27T21:46:45.846Z,6.63
2023-02-27T21:49:18.388Z,6.00
2023-02-27T21:51:47.340Z,6.57
2023-02-27T21:54:17.463Z,6.60
2023-02-27T21:56:47.677Z,6.80
2023-02-27T21:59:21.502Z,6.77
2023-02-27T22:01:49.610Z,6.83
2023-02-27T22:04:20.187Z,7.77
2023-02-27T22:06:52.158Z,7.10
2023-02-27T22:09:21.178Z,7.60
2023-02-27T22:11:49.391Z,7.30
2023-02-27T22:14:18.850Z,7.43
2023-02-27T22:16:46.998Z,6.70
2023-02-27T22:19:21.922Z,6.47
2023-02-27T22:21:50.080Z,6.40
2023-02-27T22:24:18.316Z,6.67
2023-02-27T22:26:47.703Z,6.50
2023-02-27T22:29:16.952Z,6.67
2023-02-27T22:31:46.777Z,6.93
2023-02-27T22:34:18.388Z,6.83
2023-02-27T22:36:52.737Z,7.33
2023-02-27T22:39:21.374Z,7.63
2023-02-27T22:41:49.614Z,7.50
2023-02-27T22:44:18.782Z,7.43
2023-02-27T22:46:49.404Z,8.23
2023-02-27T22:49:20.098Z,7.80
2023-02-27T22:51:50.833Z,8.33
2023-02-27T22:54:23.879Z,8.00
2023-02-27T22:56:54.332Z,7.53
2023-02-27T22:59:24.788Z,7.63
2023-02-27T23:01:54.143Z,8.20
2023-02-27T23:04:23.179Z,8.23
2023-02-27T23:06:52.812Z,7.00
2023-02-27T23:09:27.200Z,7.90
2023-02-27T23:11:55.810Z,7.20
2023-02-27T23:14:23.672Z,7.00
2023-02-27T23:16:51.538Z,6.70
2023-02-27T23:19:26.848Z,6.63
2023-02-27T23:21:54.666Z,6.97
2023-02-27T23:24:22.372Z,6.87
2023-02-27T23:26:52.882Z,7.63
2023-02-27T23:29:21.026Z,7.13
2023-02-27T23:31:49.073Z,6.93
2023-02-27T23:34:16.955Z,6.53
2023-02-27T23:36:46.138Z,6.67
2023-02-27T23:39:13.930Z,6.50
2023-02-27T23:41:41.912Z,6.33
2023-02-27T23:44:28.252Z,6.90
2023-02-27T23:49:23.708Z,6.10
2023-02-27T23:51:53.086Z,6.30
2023-02-27T23:54:20.926Z,6.13
2023-02-27T23:56:49.224Z,6.27
2023-02-27T23:59:17.101Z,6.07
